Nearby METAR Reports

 

KSFO - San Francisco, California, USA
Distance from station: NNW 8km
Updated: Fri, 22-Mar-2019 5:56pm PDT
Overcast
Overcast
 Wind from SSE
Wind: SSE 12 mph , 19 km/h
Temperature: 55°F , 13°C
Dew Point: 50°F , 10°C
Humidity: 82%
Barometer: 30.13 inHg , 1020.3 hPa
Clouds: Overcast
Visibility: 9 miles , 14 km
Cloud details: Few Clouds 1800 ft
Partly cloudy 2600 ft
Overcast 4500 ft
2019/03/23 00:56 KSFO 230056Z 15010KT 9SM FEW018 SCT026 OVC045 13/10 A3013 RMK AO2 RAB30E51 SLP201 P0000 T01330100
KSQL - San Carlos Airpo, California, USA
Distance from station: ESE 8km
Updated: Fri, 22-Mar-2019 5:47pm PDT
Overcast
Overcast
 Wind from SE
Wind: SE 7 mph , 11 km/h
Temperature: 57°F , 14°C
Dew Point: 52°F , 11°C
Humidity: 82%
Barometer: 30.14 inHg , 1020.7 hPa
Clouds: Overcast
Visibility: 10 miles , 16 km
Cloud details: Mostly cloudy 3000 ft
Overcast 4800 ft
2019/03/23 00:47 KSQL 230047Z 13006KT 10SM BKN030 OVC048 14/11 A3014
 
KHAF - Half Moon Bay, California, USA
Distance from station: WSW 15km
Updated: Fri, 22-Mar-2019 6:00pm PDT
Mist, Overcast
Mist, Overcast
 Wind from S
Wind: S 14 mph , 22 km/h, Gust: 17 mph , 28 km/h
Temperature: 55°F , 13°C
Dew Point: 54°F , 12°C
Humidity: 94%
Barometer: 30.14 inHg , 1020.7 hPa
Summary: Mist
Clouds: Overcast
Visibility: 5 miles , 8 km
Cloud details: Mostly cloudy 1100 ft
Overcast 4600 ft
2019/03/23 01:00 KHAF 230100Z AUTO 17012G15KT 5SM BR BKN011 OVC046 13/12 A3014 RMK AO2
KOAK - Oakland, California, USA
Distance from station: NNE 21km
Updated: Fri, 22-Mar-2019 5:53pm PDT
Light rain, Mist, Overcast
Light rain, Mist, Overcast
 Wind from SE
Wind: SE 12 mph , 19 km/h
Temperature: 55°F , 13°C
Dew Point: 54°F , 12°C
Humidity: 94%
Barometer: 30.14 inHg , 1020.7 hPa
Summary: Light rain, Mist
Clouds: Overcast
Visibility: 5 miles , 8 km
Cloud details: Few Clouds 800 ft
Mostly cloudy 2800 ft
Overcast 4200 ft
2019/03/23 00:53 KOAK 230053Z 13010KT 5SM -RA BR FEW008 BKN028 OVC042 13/12 A3014 RMK AO2 SLP207 P0000 T01330117 $
 
KPAO - Palo Alto, California, USA
Distance from station: ESE 21km
Updated: Fri, 22-Mar-2019 5:55pm PDT
Nearby showers, Overcast
Nearby showers, Overcast
 Wind from ESE
Wind: ESE 12 mph , 19 km/h
Temperature: 55°F , 13°C
Dew Point: 52°F , 11°C
Humidity: 88%
Barometer: 30.15 inHg , 1021 hPa
Summary: Nearby Showers
Clouds: Overcast
Visibility: 06 miles , 10 km
Cloud details: Few Clouds 1500 ft
Mostly cloudy 2500 ft
Overcast 6000 ft
2019/03/23 00:55 KPAO 230055Z 12010KT 06SM VCSH FEW015 BKN025 OVC060 13/11 A3015
KHWD - Hayward, California, USA
Distance from station: NE 23km
Updated: Fri, 22-Mar-2019 5:54pm PDT
Light rain, Overcast
Light rain, Overcast
 Wind from SE
Wind: SE 12 mph , 19 km/h
Temperature: 64°F , 18°C
Dew Point: 52°F , 11°C
Humidity: 64%
Barometer: 30.14 inHg , 1020.7 hPa
Summary: Light rain
Clouds: Overcast
Visibility: 4 miles , 6 km
Cloud details: Overcast 4700 ft
2019/03/23 00:54 KHWD 230054Z 14010KT 4SM -RA OVC047 18/11 A3014 RMK AO2 SLP217 P0000 T01780111
 
KNUQ - Moffett Nas/Mtn, California, USA
Distance from station: ESE 30km
Updated: Fri, 22-Mar-2019 5:56pm PDT
Light rain, Overcast
Light rain, Overcast
 Wind from ESE
Wind: ESE 10 mph , 17 km/h
Temperature: 55°F , 13°C
Dew Point: 52°F , 11°C
Humidity: 88%
Barometer: 30.15 inHg , 1021 hPa
Summary: Light rain
Clouds: Overcast
Visibility: 10 miles , 16 km
Cloud details: Mostly cloudy 3100 ft
Overcast 6000 ft
2019/03/23 00:56 KNUQ 230056Z 12009KT 10SM -RA BKN031 OVC060 13/11 A3015 RMK AO2 SLP212 P0003 T01330111
KSJC - San Jose, California, USA
Distance from station: ESE 42km
Updated: Fri, 22-Mar-2019 5:53pm PDT
Light rain, Mist, Overcast
Light rain, Mist, Overcast
 Wind from S
Wind: S 5 mph , 7 km/h
Temperature: 55°F , 13°C
Dew Point: 54°F , 12°C
Humidity: 94%
Barometer: 30.16 inHg , 1021.3 hPa
Summary: Light rain, Mist
Clouds: Overcast
Visibility: 6 miles , 10 km
Cloud details: Few Clouds 100 ft
Mostly cloudy 3000 ft
Overcast 8500 ft
2019/03/23 00:53 KSJC 230053Z 17004KT 6SM -RA BR FEW001 BKN030 OVC085 13/12 A3016 RMK AO2 SLP211 P0002 T01330122
 
KLVK - Livermore, California, USA
Distance from station: ENE 49km
Updated: Fri, 22-Mar-2019 5:53pm PDT
Light rain, Mist, Overcast
Light rain, Mist, Overcast
 Wind from SW
Wind: SW 3 mph , 6 km/h
Temperature: 54°F , 12°C
Dew Point: 52°F , 11°C
Humidity: 94%
Barometer: 30.14 inHg , 1020.7 hPa
Summary: Light rain, Mist
Clouds: Overcast
Visibility: 2 miles , 3 km
Cloud details: Partly cloudy 900 ft
Mostly cloudy 1900 ft
Overcast 2600 ft
2019/03/23 00:53 KLVK 230053Z 23003KT 2SM -RA BR SCT009 BKN019 OVC026 12/11 A3014 RMK AO2 SLP206 P0005 T01220106
KRHV - San Jose/Reid, California, USA
Distance from station: ESE 53km
Updated: Fri, 22-Mar-2019 5:47pm PDT
Overcast
Overcast
 Wind from SSE
Wind: SSE 6 mph , 9 km/h
Temperature: 55°F , 13°C
Dew Point: 52°F , 11°C
Humidity: 88%
Barometer: 30.14 inHg , 1020.7 hPa
Clouds: Overcast
Visibility: 7 miles , 11 km
Cloud details: Mostly cloudy 3000 ft
Overcast 8000 ft
2019/03/23 00:47 KRHV 230047Z 15005KT 7SM BKN030 OVC080 13/11 A3014
 
KCCR - Concord, California, USA
Distance from station: NNE 56km
Updated: Fri, 22-Mar-2019 5:53pm PDT
Light rain, Overcast
Light rain, Overcast
 Wind from S
Wind: S 8 mph , 13 km/h
Temperature: 57°F , 14°C
Dew Point: 52°F , 11°C
Humidity: 82%
Barometer: 30.14 inHg , 1020.7 hPa
Summary: Light rain
Clouds: Overcast
Visibility: 7 miles , 11 km
Cloud details: Few Clouds 1300 ft
Mostly cloudy 2300 ft
Overcast 2900 ft
2019/03/23 00:53 KCCR 230053Z 18007KT 7SM -RA FEW013 BKN023 OVC029 14/11 A3014 RMK AO2 SLP191 P0001 T01390106
KDVO - Novato/Gnoss Fld, California, USA
Distance from station: NNW 70km
Updated: Fri, 22-Mar-2019 5:55pm PDT
Overcast
Overcast
 Wind from SSE
Wind: SSE 9 mph , 15 km/h, Gust: 15 mph , 24 km/h
Temperature: 55°F , 13°C
Dew Point: 55°F , 13°C
Humidity: 100%
Barometer: 30.12 inHg , 1020 hPa
Clouds: Overcast
Visibility: 7 miles , 11 km
Cloud details: Few Clouds 1700 ft
Mostly cloudy 2100 ft
Overcast 4000 ft
2019/03/23 00:55 KDVO 230055Z AUTO 15008G13KT 7SM FEW017 BKN021 OVC040 13/13 A3012 RMK AO2
 
KAPC - Napa, California, USA
Distance from station: N 73km
Updated: Fri, 22-Mar-2019 5:54pm PDT
Overcast
Overcast
 Wind from ESE
Wind: ESE 8 mph , 13 km/h
Temperature: 55°F , 13°C
Dew Point: 52°F , 11°C
Humidity: 88%
Barometer: 30.13 inHg , 1020.3 hPa
Clouds: Overcast
Visibility: 10 miles , 16 km
Cloud details: Few Clouds 1700 ft
Mostly cloudy 3300 ft
Overcast 4000 ft
2019/03/23 00:54 KAPC 230054Z 12007KT 10SM FEW017 BKN033 OVC040 13/11 A3013 RMK AO2 RAE38 SLP194 P0002 T01330111